Time;durP1;ratioP1;P1;durP2;ratioP2;P2;SDS_P1;SDS_P2;PMS_P1;PMS_P2;Temp;Humidity;BMP_temperature;BMP_pressure;BME280_temperature;BME280_humidity;BME280_pressure;Samples;Min_cycle;Max_cycle;Signal;HPM_P1;HPM_P2
2021/12/25 00:00:18;;;;;;;26.95;13.60;;;;;;;4.52;100.00;99324.78;5590712;31;33999;-71
2021/12/25 00:03:21;;;;;;;25.67;12.77;;;;;;;4.57;100.00;99327.75;5590677;31;33999;-71
2021/12/25 00:06:24;;;;;;;27.98;13.43;;;;;;;4.67;100.00;99330.28;5590633;31;35213;-71
2021/12/25 00:09:27;;;;;;;24.10;13.05;;;;;;;4.85;100.00;99338.91;5590647;31;34623;-71
2021/12/25 00:12:31;;;;;;;24.15;12.77;;;;;;;4.94;100.00;99343.22;5589944;31;34606;-71
2021/12/25 00:15:33;;;;;;;26.87;12.57;;;;;;;4.92;100.00;99334.69;5590704;31;33986;-71
2021/12/25 00:18:38;;;;;;;22.77;12.37;;;;;;;4.86;100.00;99323.97;5590537;31;34675;-71
2021/12/25 00:21:42;;;;;;;25.40;12.27;;;;;;;4.85;100.00;99332.81;5590442;31;34205;-71
2021/12/25 00:24:45;;;;;;;20.73;11.60;;;;;;;4.71;100.00;99334.22;5590589;31;34570;-71
2021/12/25 00:28:18;;;;;;;22.95;11.85;;;;;;;4.68;100.00;99343.25;5590503;31;34007;-71
2021/12/25 00:34:43;;;;;;;22.83;10.77;;;;;;;5.01;100.00;99336.38;5590816;31;34425;-71
2021/12/25 00:37:46;;;;;;;20.05;10.35;;;;;;;5.11;100.00;99339.69;5589693;31;33968;-71
2021/12/25 00:40:48;;;;;;;20.92;10.23;;;;;;;5.14;100.00;99341.16;5590470;31;34334;-71
2021/12/25 00:43:52;;;;;;;17.48;8.90;;;;;;;5.24;100.00;99345.31;5590493;31;34372;-71
2021/12/25 00:46:57;;;;;;;18.92;9.55;;;;;;;5.45;100.00;99351.97;5590766;31;34032;-71
2021/12/25 00:50:00;;;;;;;17.45;9.10;;;;;;;5.39;100.00;99345.53;5590536;31;35221;-71
2021/12/25 00:53:03;;;;;;;19.00;10.15;;;;;;;5.31;100.00;99349.94;5590272;31;34144;-71
2021/12/25 00:56:07;;;;;;;17.87;9.80;;;;;;;5.41;100.00;99346.22;5590293;31;34696;-71
2021/12/25 00:59:11;;;;;;;18.50;10.15;;;;;;;5.31;100.00;99340.25;5590249;31;34626;-71
2021/12/25 01:02:14;;;;;;;18.98;10.23;;;;;;;5.15;100.00;99345.44;5590578;31;34612;-71
2021/12/25 01:05:17;;;;;;;17.75;10.55;;;;;;;5.06;100.00;99351.66;5590605;31;34614;-71
2021/12/25 01:08:22;;;;;;;19.25;10.57;;;;;;;5.10;100.00;99352.97;5590248;31;34562;-71
2021/12/25 01:11:28;;;;;;;19.92;10.40;;;;;;;4.97;100.00;99373.63;5590484;31;34609;-71
2021/12/25 01:14:38;;;;;;;17.25;10.07;;;;;;;4.98;100.00;99365.59;5590428;31;33884;-71
2021/12/25 01:21:52;;;;;;;19.42;10.82;;;;;;;5.09;100.00;99370.56;5590062;31;34163;-71
2021/12/25 01:31:11;;;;;;;15.73;8.98;;;;;;;5.33;100.00;99380.34;5589935;31;33992;-71
2021/12/25 01:37:43;;;;;;;15.65;8.63;;;;;;;5.31;100.00;99387.59;5590293;31;34560;-71
2021/12/25 01:40:58;;;;;;;16.95;9.25;;;;;;;5.24;100.00;99397.91;5590257;31;34373;-71
2021/12/25 01:47:50;;;;;;;14.77;8.70;;;;;;;5.08;100.00;99394.41;5590211;31;34046;-71
2021/12/25 01:50:54;;;;;;;17.48;9.93;;;;;;;4.98;100.00;99394.50;5590297;31;33630;-71
2021/12/25 01:53:57;;;;;;;18.83;9.55;;;;;;;4.88;100.00;99399.06;5590159;31;34093;-71
2021/12/25 01:57:00;;;;;;;17.58;8.82;;;;;;;4.89;100.00;99394.62;5589812;31;34773;-71
2021/12/25 02:00:11;;;;;;;16.60;9.45;;;;;;;4.78;100.00;99385.19;5588876;31;34405;-71
2021/12/25 02:03:21;;;;;;;18.45;9.98;;;;;;;4.64;100.00;99385.75;5589815;31;34074;-71
2021/12/25 02:06:24;;;;;;;17.42;9.70;;;;;;;4.48;100.00;99391.72;5589742;31;33369;-71
2021/12/25 02:09:27;;;;;;;17.23;9.65;;;;;;;4.33;100.00;99393.25;5589296;31;33579;-71
2021/12/25 02:12:33;;;;;;;15.57;9.63;;;;;;;4.27;100.00;99392.03;5590017;31;33452;-71
2021/12/25 02:15:36;;;;;;;15.80;9.45;;;;;;;4.22;100.00;99388.22;5590009;31;34343;-71
2021/12/25 02:18:58;;;;;;;16.40;9.68;;;;;;;4.20;100.00;99392.81;5576006;31;34839;-71
2021/12/25 02:22:02;;;;;;;16.40;9.50;;;;;;;4.07;100.00;99394.97;5589544;31;34040;-71
2021/12/25 02:25:06;;;;;;;15.05;8.55;;;;;;;4.08;100.00;99394.00;5589508;31;33968;-71
2021/12/25 02:28:12;;;;;;;15.25;9.40;;;;;;;4.13;100.00;99389.13;5588680;31;34100;-71
2021/12/25 02:31:16;;;;;;;15.18;8.93;;;;;;;4.21;100.00;99397.09;5588618;31;33941;-71
2021/12/25 02:34:19;;;;;;;14.48;8.40;;;;;;;4.41;100.00;99393.28;5589485;31;34036;-69
2021/12/25 02:37:22;;;;;;;14.85;8.13;;;;;;;4.49;100.00;99387.28;5589788;31;34172;-71
2021/12/25 02:40:27;;;;;;;14.13;7.90;;;;;;;4.69;100.00;99396.63;5588596;31;34000;-71
2021/12/25 02:43:30;;;;;;;13.10;7.78;;;;;;;4.84;100.00;99387.22;5588874;31;33998;-70
2021/12/25 02:46:34;;;;;;;14.43;8.07;;;;;;;4.89;100.00;99386.75;5588861;31;34043;-70
2021/12/25 02:49:37;;;;;;;13.40;7.82;;;;;;;4.93;100.00;99391.53;5589522;31;33849;-69
2021/12/25 02:52:40;;;;;;;13.13;8.25;;;;;;;4.90;100.00;99389.19;5589161;31;33969;-69
2021/12/25 02:55:45;;;;;;;17.85;8.00;;;;;;;4.79;100.00;99390.28;5589449;31;34021;-69
2021/12/25 02:58:48;;;;;;;16.05;8.02;;;;;;;4.73;100.00;99387.47;5588129;31;34171;-70
2021/12/25 03:01:51;;;;;;;15.25;7.97;;;;;;;4.63;100.00;99399.87;5589486;31;34153;-69
2021/12/25 03:04:53;;;;;;;13.48;7.80;;;;;;;4.52;100.00;99393.06;5589283;31;34600;-69
2021/12/25 03:07:56;;;;;;;13.13;7.47;;;;;;;4.47;100.00;99391.84;5588865;31;34559;-69
2021/12/25 03:11:06;;;;;;;12.30;7.45;;;;;;;4.54;100.00;99385.84;5588850;31;33980;-69
2021/12/25 03:14:24;;;;;;;13.93;7.47;;;;;;;4.61;100.00;99379.00;5589102;31;33909;-69
2021/12/25 03:17:28;;;;;;;13.10;7.72;;;;;;;4.61;100.00;99375.53;5588049;31;34297;-70
2021/12/25 03:20:33;;;;;;;12.15;6.90;;;;;;;4.52;100.00;99379.91;5588925;31;33920;-70
2021/12/25 03:23:37;;;;;;;13.73;8.18;;;;;;;4.46;100.00;99385.78;5587792;31;34617;-69
2021/12/25 03:26:40;;;;;;;10.45;6.25;;;;;;;4.41;100.00;99374.91;5588757;31;34034;-69
2021/12/25 03:29:43;;;;;;;14.73;7.43;;;;;;;4.60;100.00;99372.09;5588523;31;34539;-69
2021/12/25 03:32:47;;;;;;;12.50;7.07;;;;;;;4.52;100.00;99368.59;5588398;31;34035;-69
2021/12/25 03:35:49;;;;;;;13.73;7.87;;;;;;;4.67;100.00;99359.16;5588678;31;34030;-69
2021/12/25 03:38:54;;;;;;;12.37;7.30;;;;;;;4.67;100.00;99361.78;5587515;31;33944;-69
2021/12/25 03:41:58;;;;;;;10.68;5.22;;;;;;;4.67;100.00;99370.50;5588240;31;34035;-69
2021/12/25 03:45:01;;;;;;;13.15;5.15;;;;;;;5.14;100.00;99377.97;5588592;31;34542;-69
2021/12/25 03:58:15;;;;;;;10.93;6.22;;;;;;;5.44;100.00;99395.03;5591138;31;34660;-69
2021/12/25 04:04:45;;;;;;;11.77;6.62;;;;;;;4.98;100.00;99399.78;5590713;31;34054;-69
2021/12/25 04:11:01;;;;;;;13.25;7.47;;;;;;;4.76;100.00;99411.59;5590717;31;34610;-69
2021/12/25 04:14:05;;;;;;;11.48;6.85;;;;;;;4.73;100.00;99416.34;5590993;31;34616;-69
2021/12/25 04:17:08;;;;;;;14.15;7.07;;;;;;;4.64;100.00;99431.25;5590649;31;34576;-69
2021/12/25 04:20:12;;;;;;;14.15;7.18;;;;;;;4.66;100.00;99418.75;5590560;31;35236;-69
2021/12/25 04:23:23;;;;;;;11.95;7.22;;;;;;;4.82;100.00;99410.19;5589854;31;33935;-70
2021/12/25 04:26:26;;;;;;;13.18;7.50;;;;;;;4.76;100.00;99408.16;5590415;31;34036;-69
2021/12/25 04:47:47;;;;;;;12.07;6.90;;;;;;;4.92;100.00;99410.91;5549478;32;34822;-69
2021/12/25 04:50:02;;;;;;;12.55;6.60;;;;;;;5.27;100.00;99417.00;5590365;31;34327;-70
2021/12/25 05:06:28;;;;;;;10.43;6.07;;;;;;;4.90;100.00;99414.63;5590243;31;34796;-70
2021/12/25 05:09:32;;;;;;;11.38;6.35;;;;;;;4.91;100.00;99416.28;5589870;31;34000;-69
2021/12/25 05:12:35;;;;;;;13.32;6.70;;;;;;;4.89;100.00;99423.53;5590073;31;34522;-70
2021/12/25 05:15:38;;;;;;;14.98;6.70;;;;;;;4.86;100.00;99423.81;5590155;31;33882;-69
2021/12/25 05:18:41;;;;;;;11.68;6.10;;;;;;;4.81;100.00;99416.41;5590361;31;34419;-69
2021/12/25 05:21:44;;;;;;;12.60;6.20;;;;;;;4.76;100.00;99414.25;5589303;31;34009;-69
2021/12/25 05:24:46;;;;;;;11.93;5.28;;;;;;;4.71;100.00;99413.87;5589993;31;34640;-69
2021/12/25 05:27:50;;;;;;;11.12;6.25;;;;;;;4.70;100.00;99422.72;5590005;31;35272;-69
2021/12/25 05:30:54;;;;;;;8.93;5.28;;;;;;;4.78;100.00;99421.97;5589916;31;34011;-69
2021/12/25 05:33:59;;;;;;;9.60;5.97;;;;;;;4.62;100.00;99427.94;5590320;31;34028;-70
2021/12/25 05:37:03;;;;;;;8.95;4.97;;;;;;;4.66;100.00;99424.03;5590211;31;34275;-69
2021/12/25 05:40:07;;;;;;;12.23;5.28;;;;;;;4.49;100.00;99427.50;5590077;31;33892;-69
2021/12/25 05:43:12;;;;;;;11.73;4.87;;;;;;;4.49;100.00;99430.13;5589387;31;34585;-69
2021/12/25 05:46:15;;;;;;;8.48;4.47;;;;;;;4.40;100.00;99423.19;5589922;31;34327;-69
2021/12/25 05:49:18;;;;;;;10.43;5.82;;;;;;;4.44;100.00;99434.19;5590201;31;34014;-69
2021/12/25 05:52:24;;;;;;;10.82;4.95;;;;;;;4.70;100.00;99432.41;5590118;31;34016;-70
2021/12/25 05:55:27;;;;;;;11.73;4.90;;;;;;;4.82;100.00;99420.69;5589128;31;33908;-69
2021/12/25 05:58:32;;;;;;;7.97;5.00;;;;;;;4.70;100.00;99421.91;5590062;31;33950;-69
2021/12/25 06:01:34;;;;;;;9.43;4.82;;;;;;;4.58;100.00;99423.13;5589800;31;34710;-70
2021/12/25 06:04:38;;;;;;;10.77;5.62;;;;;;;4.48;100.00;99427.66;5589728;31;33902;-69
2021/12/25 06:07:44;;;;;;;9.63;4.95;;;;;;;4.39;100.00;99418.91;5589538;31;34457;-70
2021/12/25 06:10:47;;;;;;;9.73;5.65;;;;;;;4.22;100.00;99425.78;5589733;31;34238;-69
2021/12/25 06:13:59;;;;;;;8.93;5.70;;;;;;;4.09;100.00;99424.53;5589639;31;34039;-69
2021/12/25 06:17:03;;;;;;;9.32;5.10;;;;;;;3.96;100.00;99429.31;5589146;31;34081;-69
2021/12/25 06:20:07;;;;;;;10.40;5.03;;;;;;;3.81;100.00;99439.50;5589038;31;35201;-69
2021/12/25 06:23:11;;;;;;;9.90;5.75;;;;;;;3.70;100.00;99437.91;5575863;31;33999;-69
2021/12/25 06:26:15;;;;;;;10.50;5.55;;;;;;;3.59;100.00;99435.47;5588938;31;34157;-69
2021/12/25 06:29:19;;;;;;;10.43;5.87;;;;;;;3.53;100.00;99435.25;5589720;31;33931;-69
2021/12/25 06:32:23;;;;;;;12.75;5.78;;;;;;;3.45;100.00;99459.56;5589343;31;34569;-69
2021/12/25 06:35:28;;;;;;;11.10;5.85;;;;;;;3.42;100.00;99462.47;5589767;31;34075;-69
2021/12/25 06:38:30;;;;;;;8.65;5.78;;;;;;;3.45;100.00;99462.19;5589254;31;34282;-69
2021/12/25 06:41:34;;;;;;;9.15;5.60;;;;;;;3.44;100.00;99476.25;5589470;31;33953;-71
2021/12/25 06:44:37;;;;;;;9.73;5.87;;;;;;;3.50;100.00;99476.50;5589247;31;33838;-69
2021/12/25 06:47:40;;;;;;;14.10;6.85;;;;;;;3.55;100.00;99470.84;5589161;31;34617;-69
2021/12/25 06:50:43;;;;;;;9.65;6.12;;;;;;;3.62;100.00;99482.41;5589141;31;33874;-69
2021/12/25 06:53:53;;;;;;;11.37;6.50;;;;;;;3.70;100.00;99477.25;5588470;31;33980;-69
2021/12/25 06:56:56;;;;;;;13.13;6.57;;;;;;;3.72;100.00;99480.56;5589110;31;33989;-69
2021/12/25 06:59:59;;;;;;;10.98;6.12;;;;;;;3.79;100.00;99486.03;5589047;31;34131;-69
2021/12/25 07:03:02;;;;;;;13.25;6.62;;;;;;;3.88;100.00;99493.03;5589131;31;34017;-69
2021/12/25 07:06:21;;;;;;;12.90;7.25;;;;;;;3.86;100.00;99503.69;5589367;31;33641;-69
2021/12/25 07:09:24;;;;;;;13.70;7.68;;;;;;;4.12;100.00;99506.41;5588829;31;34139;-69
2021/12/25 07:12:31;;;;;;;12.80;7.35;;;;;;;4.17;100.00;99504.16;5588118;31;33960;-69
2021/12/25 07:15:34;;;;;;;14.07;8.10;;;;;;;4.38;100.00;99496.84;5588995;31;33928;-69
2021/12/25 07:18:38;;;;;;;15.13;8.10;;;;;;;4.49;100.00;99508.09;5588582;31;34629;-69
2021/12/25 07:21:44;;;;;;;18.58;9.50;;;;;;;4.65;100.00;99495.91;5587974;31;35246;-69
2021/12/25 07:24:48;;;;;;;18.10;9.10;;;;;;;4.69;100.00;99499.09;5588072;31;34235;-71
2021/12/25 07:27:53;;;;;;;18.83;9.82;;;;;;;4.61;100.00;99509.50;5588856;31;33982;-69
2021/12/25 07:30:58;;;;;;;19.58;10.27;;;;;;;4.56;100.00;99525.72;5589529;31;34026;-70
2021/12/25 07:34:02;;;;;;;15.77;8.60;;;;;;;4.60;100.00;99526.28;5591105;31;34601;-69
2021/12/25 07:37:06;;;;;;;17.23;9.55;;;;;;;4.63;100.00;99523.31;5591327;31;33954;-69
2021/12/25 07:40:10;;;;;;;18.08;10.77;;;;;;;4.65;100.00;99518.72;5590767;31;34415;-69
2021/12/25 07:43:13;;;;;;;18.05;10.55;;;;;;;4.57;100.00;99522.13;5591137;31;34672;-69
2021/12/25 07:46:25;;;;;;;21.75;11.10;;;;;;;4.67;100.00;99529.94;5591244;31;34742;-69
2021/12/25 07:49:28;;;;;;;21.40;11.00;;;;;;;4.65;100.00;99532.69;5591088;31;34014;-69
2021/12/25 07:52:30;;;;;;;23.77;11.45;;;;;;;4.65;100.00;99532.69;5590927;31;34524;-69
2021/12/25 07:55:33;;;;;;;19.27;10.93;;;;;;;4.56;100.00;99523.09;5590092;31;33884;-69
2021/12/25 07:58:42;;;;;;;23.48;10.88;;;;;;;4.55;100.00;99529.31;5590641;31;34540;-69
2021/12/25 08:01:44;;;;;;;19.27;11.23;;;;;;;4.62;100.00;99532.19;5590769;31;34631;-70
2021/12/25 08:04:47;;;;;;;18.75;10.68;;;;;;;4.62;100.00;99530.38;5590615;31;34110;-70
2021/12/25 08:07:50;;;;;;;21.62;10.85;;;;;;;4.69;100.00;99533.25;5591107;31;34569;-70
2021/12/25 08:10:55;;;;;;;20.42;10.82;;;;;;;4.66;100.00;99541.41;5590892;31;34106;-70
2021/12/25 08:13:58;;;;;;;22.13;10.75;;;;;;;4.73;100.00;99526.72;5590653;31;33938;-70
2021/12/25 08:17:03;;;;;;;17.73;10.30;;;;;;;4.85;100.00;99528.09;5590651;31;34624;-70
2021/12/25 08:20:12;;;;;;;21.12;11.43;;;;;;;4.73;100.00;99529.34;5590882;31;34066;-70
2021/12/25 08:23:34;;;;;;;19.48;11.10;;;;;;;4.70;100.00;99535.69;5590797;31;32776;-70
2021/12/25 08:26:54;;;;;;;19.45;11.38;;;;;;;4.78;100.00;99548.94;5590824;31;32209;-70
2021/12/25 08:29:58;;;;;;;21.90;12.10;;;;;;;4.72;100.00;99539.00;5590789;31;33883;-69
2021/12/25 08:33:05;;;;;;;22.13;11.77;;;;;;;4.79;100.00;99542.66;5590537;31;34662;-69
2021/12/25 08:36:12;;;;;;;20.27;11.38;;;;;;;4.88;100.00;99538.34;5590589;31;33944;-69
2021/12/25 08:39:14;;;;;;;20.40;11.15;;;;;;;4.71;100.00;99539.16;5589640;31;34641;-69
2021/12/25 08:42:18;;;;;;;20.83;12.25;;;;;;;4.75;100.00;99533.44;5589239;31;34128;-70
2021/12/25 08:48:35;;;;;;;20.52;11.70;;;;;;;4.74;100.00;99517.84;5590349;31;34426;-71
2021/12/25 08:51:38;;;;;;;22.05;11.82;;;;;;;4.79;100.00;99515.59;5590669;31;33920;-71
2021/12/25 08:54:42;;;;;;;22.62;12.27;;;;;;;5.06;100.00;99519.91;5590346;31;33900;-69
2021/12/25 08:57:44;;;;;;;19.87;11.50;;;;;;;5.14;100.00;99514.69;5590196;31;34634;-69
2021/12/25 09:00:54;;;;;;;20.33;11.30;;;;;;;5.34;100.00;99517.94;5590321;31;35311;-69
2021/12/25 09:03:57;;;;;;;21.27;12.43;;;;;;;5.51;100.00;99520.53;5590530;31;34311;-69
2021/12/25 09:07:02;;;;;;;22.10;11.20;;;;;;;5.51;100.00;99496.03;5589227;31;34061;-69
2021/12/25 09:10:05;;;;;;;20.67;11.35;;;;;;;5.57;100.00;99503.25;5590105;31;34031;-69
2021/12/25 09:13:08;;;;;;;22.80;11.38;;;;;;;5.75;100.00;99519.81;5589891;31;34140;-69
2021/12/25 09:16:10;;;;;;;21.45;11.93;;;;;;;5.95;100.00;99507.25;5589638;31;33955;-69
2021/12/25 09:19:14;;;;;;;18.70;11.55;;;;;;;5.80;100.00;99507.00;5590364;31;35208;-70
2021/12/25 09:22:21;;;;;;;19.05;11.50;;;;;;;5.90;100.00;99505.09;5589797;31;34077;-70
2021/12/25 09:25:26;;;;;;;20.73;12.07;;;;;;;5.62;100.00;99504.44;5590030;31;34641;-70
2021/12/25 09:28:31;;;;;;;23.95;12.82;;;;;;;5.71;100.00;99496.59;5589407;31;33861;-69
2021/12/25 09:31:34;;;;;;;20.33;12.32;;;;;;;5.65;100.00;99496.25;5588715;31;34744;-70
2021/12/25 09:34:36;;;;;;;22.48;13.52;;;;;;;5.67;100.00;99494.28;5589119;31;33971;-70
2021/12/25 09:37:39;;;;;;;24.55;12.35;;;;;;;5.77;100.00;99480.97;5590114;31;34207;-69
2021/12/25 09:40:42;;;;;;;26.62;13.13;;;;;;;5.90;100.00;99484.03;5588992;31;34512;-70
2021/12/25 09:43:47;;;;;;;21.77;11.68;;;;;;;6.14;100.00;99485.09;5589670;31;34082;-70
2021/12/25 09:46:50;;;;;;;19.67;11.30;;;;;;;6.62;100.00;99485.16;5589763;31;33929;-70
2021/12/25 09:49:53;;;;;;;23.08;12.05;;;;;;;6.69;100.00;99485.31;5589739;31;33863;-70
2021/12/25 09:52:56;;;;;;;22.02;12.85;;;;;;;6.67;100.00;99489.94;5589436;31;33995;-70
2021/12/25 09:55:59;;;;;;;20.50;11.82;;;;;;;6.69;100.00;99483.50;5589435;31;33970;-69
2021/12/25 09:59:03;;;;;;;22.30;12.07;;;;;;;6.55;100.00;99486.78;5588987;31;34706;-70
2021/12/25 10:02:14;;;;;;;25.33;12.98;;;;;;;6.69;100.00;99475.59;5588713;31;34304;-69
2021/12/25 10:05:29;;;;;;;19.90;12.63;;;;;;;6.92;100.00;99473.13;5589544;31;33939;-69
2021/12/25 10:08:31;;;;;;;21.27;11.55;;;;;;;7.19;100.00;99472.75;5589713;31;34414;-69
2021/12/25 10:11:34;;;;;;;21.25;12.35;;;;;;;7.53;100.00;99475.13;5589503;31;33977;-69
2021/12/25 10:14:39;;;;;;;24.02;12.77;;;;;;;7.80;100.00;99487.03;5589621;31;34544;-69
2021/12/25 10:17:51;;;;;;;17.37;11.70;;;;;;;7.98;100.00;99485.00;5589273;31;33915;-70
2021/12/25 10:20:54;;;;;;;21.35;12.15;;;;;;;7.83;98.53;99481.44;5589779;31;33992;-70
2021/12/25 10:24:26;;;;;;;20.35;11.80;;;;;;;7.61;100.00;99472.44;5589526;31;33520;-70
2021/12/25 10:27:29;;;;;;;19.77;11.40;;;;;;;8.17;99.01;99483.75;5585975;31;107317;-70
2021/12/25 10:30:54;;;;;;;23.62;13.80;;;;;;;8.10;96.42;99483.59;5589158;31;34660;-71
2021/12/25 10:33:56;;;;;;;21.58;12.90;;;;;;;7.65;98.81;99486.16;5589474;31;34571;-70
2021/12/25 10:37:11;;;;;;;18.37;11.77;;;;;;;7.42;100.00;99486.03;5589276;31;34000;-70
2021/12/25 10:40:34;;;;;;;21.75;12.95;;;;;;;7.67;100.00;99487.59;5589258;31;34630;-70
2021/12/25 10:43:41;;;;;;;23.85;12.80;;;;;;;7.95;100.00;99495.06;5588518;31;34017;-70
2021/12/25 10:46:50;;;;;;;22.35;12.65;;;;;;;8.43;96.79;99492.19;5589032;31;34506;-70
2021/12/25 10:50:11;;;;;;;18.45;12.35;;;;;;;8.61;94.16;99482.16;5589109;31;34034;-70
2021/12/25 10:53:27;;;;;;;20.95;13.13;;;;;;;8.45;95.29;99487.56;5589100;31;33958;-70
2021/12/25 10:56:37;;;;;;;23.40;13.02;;;;;;;8.11;96.78;99471.22;5589103;31;33878;-70
2021/12/25 10:59:47;;;;;;;20.08;12.18;;;;;;;8.12;96.61;99478.16;5588997;31;33904;-70
2021/12/25 11:02:51;;;;;;;21.17;13.27;;;;;;;7.85;98.00;99471.50;5588893;31;33980;-70
2021/12/25 11:05:59;;;;;;;21.42;12.60;;;;;;;8.01;98.37;99455.59;5588005;31;33879;-70
2021/12/25 11:09:07;;;;;;;22.33;13.77;;;;;;;8.62;95.08;99465.28;5587988;31;35202;-70
2021/12/25 11:12:21;;;;;;;19.90;12.93;;;;;;;9.02;93.30;99461.47;5588791;31;33997;-70
2021/12/25 11:15:32;;;;;;;23.27;13.80;;;;;;;9.05;91.60;99455.78;5588760;31;34659;-70
2021/12/25 11:19:09;;;;;;;20.17;13.18;;;;;;;8.87;93.57;99446.56;5588560;31;34071;-69
2021/12/25 11:22:12;;;;;;;20.52;12.43;;;;;;;9.07;93.41;99448.50;5587690;31;34022;-69
2021/12/25 11:25:17;;;;;;;21.37;13.23;;;;;;;9.19;90.94;99440.12;5588625;31;34337;-69
2021/12/25 11:28:20;;;;;;;19.25;12.68;;;;;;;8.92;93.69;99434.44;5588324;31;34682;-69
2021/12/25 11:31:22;;;;;;;20.73;12.15;;;;;;;8.85;93.62;99430.06;5588292;31;34048;-69
2021/12/25 11:34:27;;;;;;;22.05;13.25;;;;;;;8.28;96.40;99414.63;5588278;31;34589;-70
2021/12/25 11:37:30;;;;;;;19.90;12.23;;;;;;;8.75;95.09;99403.03;5588429;31;33893;-69
2021/12/25 11:40:37;;;;;;;20.37;12.00;;;;;;;8.76;93.25;99407.34;5588529;31;33878;-69
2021/12/25 11:43:43;;;;;;;21.08;12.23;;;;;;;9.13;92.44;99402.00;5588059;31;33998;-69
2021/12/25 11:46:47;;;;;;;21.80;13.50;;;;;;;8.98;93.08;99399.34;5588012;31;33888;-69
2021/12/25 11:49:55;;;;;;;21.33;12.15;;;;;;;8.75;95.86;99392.47;5588022;31;34115;-69
2021/12/25 11:53:22;;;;;;;20.10;12.70;;;;;;;8.68;94.07;99387.88;5588077;31;34653;-69
2021/12/25 11:56:42;;;;;;;17.55;10.93;;;;;;;8.76;94.87;99381.72;5588038;31;34577;-69
2021/12/25 11:59:48;;;;;;;18.98;12.40;;;;;;;8.77;94.43;99377.22;5588077;31;33901;-69
2021/12/25 12:02:51;;;;;;;18.33;11.48;;;;;;;9.09;92.45;99380.38;5587631;31;34167;-69
2021/12/25 12:05:54;;;;;;;19.37;11.93;;;;;;;9.18;92.57;99373.16;5587048;31;34599;-69
2021/12/25 12:08:56;;;;;;;21.20;12.02;;;;;;;9.35;91.19;99373.78;5587830;31;34000;-69
2021/12/25 12:12:03;;;;;;;18.02;11.18;;;;;;;9.76;89.51;99374.91;5588075;31;35201;-69
2021/12/25 12:15:14;;;;;;;22.17;12.90;;;;;;;10.10;89.32;99378.72;5588023;31;35238;-69
2021/12/25 12:18:23;;;;;;;16.85;11.07;;;;;;;10.53;85.33;99382.19;5589640;31;34575;-69
2021/12/25 12:21:38;;;;;;;18.70;12.05;;;;;;;10.94;83.31;99391.03;5590417;31;34871;-69
2021/12/25 12:24:50;;;;;;;20.10;12.55;;;;;;;10.42;86.16;99397.59;5590463;31;34121;-68
2021/12/25 12:27:55;;;;;;;18.10;12.70;;;;;;;10.62;85.41;99388.97;5589639;31;34006;-68
2021/12/25 12:30:58;;;;;;;21.05;12.57;;;;;;;10.19;86.56;99386.38;5590601;31;34600;-69
2021/12/25 12:34:01;;;;;;;21.12;12.32;;;;;;;9.60;89.37;99385.69;5590234;31;34412;-68
2021/12/25 12:37:28;;;;;;;22.75;13.52;;;;;;;9.72;89.00;99383.41;5590482;31;34068;-69
2021/12/25 12:40:31;;;;;;;21.40;13.23;;;;;;;9.77;89.23;99376.53;5582958;31;33870;-69
2021/12/25 12:43:57;;;;;;;18.02;12.05;;;;;;;9.80;88.55;99384.09;5589800;31;33859;-69
2021/12/25 12:47:11;;;;;;;19.90;12.30;;;;;;;10.06;88.68;99396.81;5589765;31;34261;-69
2021/12/25 12:50:15;;;;;;;17.87;11.48;;;;;;;10.16;86.59;99385.94;5590052;31;33872;-69
2021/12/25 12:53:19;;;;;;;19.55;11.40;;;;;;;9.75;89.27;99388.31;5590296;31;34216;-69
2021/12/25 12:56:22;;;;;;;16.40;10.73;;;;;;;9.91;88.51;99382.78;5590247;31;34559;-68
2021/12/25 12:59:50;;;;;;;15.70;10.75;;;;;;;9.83;88.33;99385.53;5590230;31;33870;-68
2021/12/25 13:02:55;;;;;;;18.30;11.23;;;;;;;10.21;88.07;99384.37;5590066;31;34627;-68
2021/12/25 13:06:04;;;;;;;16.08;10.38;;;;;;;10.32;85.62;99389.13;5590157;31;34523;-69
2021/12/25 13:09:08;;;;;;;17.05;10.40;;;;;;;10.40;84.62;99389.03;5590453;31;33923;-68
2021/12/25 13:12:26;;;;;;;15.10;9.80;;;;;;;10.19;86.21;99390.84;5589339;31;35169;-69
2021/12/25 13:15:32;;;;;;;15.52;9.65;;;;;;;9.99;87.49;99388.78;5590155;31;34010;-68
2021/12/25 13:18:42;;;;;;;15.18;9.27;;;;;;;9.79;88.40;99384.28;5590046;31;33921;-68
2021/12/25 13:21:45;;;;;;;14.40;9.85;;;;;;;9.48;89.97;99369.47;5590323;31;34488;-68
2021/12/25 13:24:54;;;;;;;14.10;9.25;;;;;;;9.39;90.94;99365.28;5590044;31;34225;-68
2021/12/25 13:27:59;;;;;;;12.63;8.05;;;;;;;9.29;91.60;99356.81;5589260;31;34707;-69
2021/12/25 13:31:12;;;;;;;12.27;8.10;;;;;;;9.13;92.50;99354.38;5589245;31;33904;-69
2021/12/25 13:34:20;;;;;;;14.30;8.35;;;;;;;8.95;93.67;99357.38;5589861;31;34372;-69
2021/12/25 13:37:23;;;;;;;14.43;9.00;;;;;;;9.06;94.52;99361.37;5590142;31;33935;-68
2021/12/25 13:40:27;;;;;;;14.30;9.18;;;;;;;8.84;94.16;99347.25;5589791;31;34014;-69
2021/12/25 13:43:29;;;;;;;15.80;8.73;;;;;;;8.88;94.69;99366.22;5589628;31;34057;-69
2021/12/25 13:46:39;;;;;;;15.30;9.00;;;;;;;8.86;95.47;99363.75;5590247;31;33798;-69
2021/12/25 13:49:45;;;;;;;14.73;9.13;;;;;;;8.78;95.82;99369.13;5589705;31;33960;-69
2021/12/25 13:52:58;;;;;;;15.38;9.15;;;;;;;8.67;98.47;99364.25;5589444;31;33939;-69
2021/12/25 13:56:09;;;;;;;17.37;10.00;;;;;;;8.48;99.04;99359.50;5588868;31;34180;-68
2021/12/25 13:59:13;;;;;;;15.63;9.23;;;;;;;8.49;98.25;99358.50;5588658;31;34765;-69
2021/12/25 14:02:16;;;;;;;15.57;9.63;;;;;;;8.50;98.21;99353.03;5589546;31;35231;-69
2021/12/25 14:05:23;;;;;;;15.27;9.63;;;;;;;8.43;99.11;99359.22;5589666;31;33926;-69
2021/12/25 14:08:26;;;;;;;16.35;9.38;;;;;;;8.45;98.59;99362.50;5589678;31;35188;-69
2021/12/25 14:11:29;;;;;;;16.10;9.30;;;;;;;8.45;98.40;99368.63;5589593;31;34097;-69
2021/12/25 14:14:33;;;;;;;16.65;9.43;;;;;;;8.41;98.42;99369.16;5589730;31;34543;-69
2021/12/25 14:17:37;;;;;;;15.98;9.27;;;;;;;8.34;98.82;99374.31;5589795;31;33881;-69
2021/12/25 14:20:42;;;;;;;16.90;9.82;;;;;;;8.30;98.99;99375.69;5589681;31;34043;-69
2021/12/25 14:23:58;;;;;;;17.90;10.55;;;;;;;8.27;99.31;99378.66;5589596;31;34015;-69
2021/12/25 14:27:07;;;;;;;18.90;10.45;;;;;;;8.23;99.84;99390.53;5589264;31;34139;-69
2021/12/25 14:30:13;;;;;;;17.12;10.73;;;;;;;8.17;100.00;99381.53;5589681;31;33969;-69
2021/12/25 14:33:19;;;;;;;16.80;10.52;;;;;;;8.10;100.00;99385.03;5588666;31;34424;-69
2021/12/25 14:36:23;;;;;;;19.23;10.95;;;;;;;8.02;100.00;99388.56;5589754;31;34315;-68
2021/12/25 14:39:29;;;;;;;20.52;12.18;;;;;;;7.73;100.00;99407.72;5589181;31;34006;-68
2021/12/25 14:42:39;;;;;;;20.48;12.55;;;;;;;7.40;100.00;99400.97;5589237;31;33894;-68
2021/12/25 14:45:44;;;;;;;22.20;12.73;;;;;;;7.18;100.00;99404.31;5589160;31;34411;-68
2021/12/25 14:48:47;;;;;;;22.37;13.38;;;;;;;6.93;100.00;99412.28;5589332;31;34634;-68
2021/12/25 14:51:50;;;;;;;23.90;13.38;;;;;;;6.73;100.00;99407.56;5589166;31;33951;-68
2021/12/25 14:54:53;;;;;;;21.77;13.50;;;;;;;6.62;100.00;99416.63;5589161;31;33891;-68
2021/12/25 14:58:12;;;;;;;25.60;15.10;;;;;;;6.51;100.00;99411.69;5588732;31;34185;-68
2021/12/25 15:01:24;;;;;;;28.00;16.10;;;;;;;6.43;100.00;99415.16;5588221;31;34016;-69
2021/12/25 15:04:31;;;;;;;31.10;16.37;;;;;;;6.08;100.00;99418.09;5589395;31;34261;-69
2021/12/25 15:07:38;;;;;;;39.70;18.35;;;;;;;5.98;100.00;99433.22;5589012;31;33967;-69
2021/12/25 15:10:41;;;;;;;33.08;17.73;;;;;;;5.91;100.00;99417.22;5588870;31;34623;-69
2021/12/25 15:13:57;;;;;;;34.63;18.08;;;;;;;5.51;100.00;99403.94;5588718;31;33877;-69
2021/12/25 15:17:06;;;;;;;35.72;19.67;;;;;;;5.54;100.00;99422.84;5588668;31;33928;-69
2021/12/25 15:20:18;;;;;;;34.22;18.35;;;;;;;5.39;100.00;99442.84;5588864;31;33975;-70
2021/12/25 15:23:21;;;;;;;35.88;19.30;;;;;;;5.31;100.00;99449.88;5587814;31;33946;-69
2021/12/25 15:26:24;;;;;;;35.95;19.05;;;;;;;5.22;100.00;99447.22;5588593;31;34013;-70
2021/12/25 15:29:30;;;;;;;37.22;19.55;;;;;;;5.35;100.00;99457.31;5588451;31;34929;-69
2021/12/25 15:32:40;;;;;;;38.72;19.85;;;;;;;5.06;100.00;99476.03;5588385;31;33898;-69
2021/12/25 15:35:45;;;;;;;35.33;18.05;;;;;;;5.01;100.00;99483.56;5588453;31;34593;-69